Buoy 46930

sailwx.info

Track history (hours):
 
Tides and Currents Weather Stations Pressure Air Temp Water Temp Dewpoint Dewpoint Depression Visibility Wind Speed Wind Dir Waves Ship Positions

Drifting buoy 46930

Last reported at 2014-Jul-24 10:00 UTC. Time now 2014-Jul-24 12:19 UTC.
Position N 26°18' W 116°58'.

Water temperature 22.2 ° C

Date/timePositionNaut miles runAvg speedWind from/ knotsBaromVisibWave heightAir tempDewpointWater temp
2014-Jul-24 10:00N 26°18' W 116°58'1 1.3 22.2
2014-Jul-24 09:00N 26°19' W 116°58'0 0.0 22.2
2014-Jul-24 08:00N 26°19' W 116°58'1 1.4 22.2
2014-Jul-24 07:00N 26°20' W 116°60'0 0.2 22.2
2014-Jul-24 05:00N 26°20' W 117°00'0 0.3 22.3
2014-Jul-24 04:00N 26°20' W 117°00'0 0.2 22.3
2014-Jul-24 03:00N 26°20' W 117°00'0 0.2 22.3
2014-Jul-24 02:00N 26°20' W 117°00'1 0.4 22.3
2014-Jul-24 00:00N 26°20' W 116°59'0 0.3 22.3
2014-Jul-23 23:00N 26°20' W 116°60'0 0.4 22.3
2014-Jul-23 22:00N 26°21' W 116°59'1 0.8 22.3
2014-Jul-23 21:00N 26°20' W 117°00'2 0.4 22.3
2014-Jul-23 16:00N 26°22' W 116°59'1 0.4 22.2
2014-Jul-23 13:00N 26°24' W 116°59'1 0.8 22.1
2014-Jul-23 12:00N 26°24' W 116°59'1 0.3 22.2
2014-Jul-23 08:00N 26°25' W 116°60'1 1.1 22.2
2014-Jul-23 07:00N 26°26' W 117°01'0 0.0 22.2
2014-Jul-23 06:00N 26°26' W 117°01'1 0.6 22.2
2014-Jul-23 05:00N 26°26' W 117°01'0 0.3 22.2
2014-Jul-23 04:00N 26°26' W 117°01'1 0.2 22.2
2014-Jul-23 00:00N 26°27' W 117°01'0 0.1 22.3
2014-Jul-22 22:00N 26°27' W 117°01'1 0.5 22.3
2014-Jul-22 21:00N 26°27' W 117°02'0 0.2 22.3
2014-Jul-22 20:00N 26°28' W 117°02'0 0.1 22.2
2014-Jul-22 18:00N 26°28' W 117°02'0 0.2 22.2
2014-Jul-22 17:00N 26°28' W 117°02'0 0.0 22.2
2014-Jul-22 16:00N 26°28' W 117°02'1 0.4 22.2
2014-Jul-22 13:00N 26°29' W 117°02'0 0.2 22.2
2014-Jul-22 11:00N 26°29' W 117°02'0 0.3 22.2
2014-Jul-22 10:00N 26°29' W 117°02'1 0.3 22.2
2014-Jul-22 05:00N 26°30' W 117°03'1 0.7 22.2
2014-Jul-22 04:00N 26°31' W 117°03'0 0.0 22.2
2014-Jul-22 03:00N 26°31' W 117°03'0 0.0 22.2
2014-Jul-22 02:00N 26°31' W 117°03'1 0.4 22.3
2014-Jul-21 23:00N 26°31' W 117°04'1 0.6 22.3
2014-Jul-21 22:00N 26°32' W 117°05'0 0.0 22.3
2014-Jul-21 20:00N 26°32' W 117°05'0 0.1 22.3
2014-Jul-21 18:00N 26°32' W 117°05'0 0.5 22.3
2014-Jul-21 17:00N 26°32' W 117°05'0 0.3 22.2
2014-Jul-21 16:00N 26°32' W 117°05'0 0.2 22.2
2014-Jul-21 15:00N 26°32' W 117°06'1 0.2 22.2
2014-Jul-21 12:00N 26°32' W 117°06'1 0.6 22.2
2014-Jul-21 11:00N 26°33' W 117°06'0 0.0 22.2
2014-Jul-21 10:00N 26°33' W 117°06'0 0.0 22.2
2014-Jul-21 09:00N 26°33' W 117°06'2 0.3 22.3
2014-Jul-21 04:00N 26°34' W 117°07'1 0.4 22.4
2014-Jul-21 01:00N 26°35' W 117°09'0 0.4 22.5
2014-Jul-21 00:00N 26°35' W 117°09'1 0.5 22.5
2014-Jul-20 23:00N 26°35' W 117°10'1 0.9 22.6
2014-Jul-20 22:00N 26°35' W 117°11'0 0.1 22.6
2014-Jul-20 20:00N 26°35' W 117°11'1 0.5 22.4
2014-Jul-20 18:00N 26°35' W 117°12'0 0.3 22.2
2014-Jul-20 17:00N 26°35' W 117°12'0 0.2 22.2
2014-Jul-20 16:00N 26°35' W 117°12'0 0.0 22.1
2014-Jul-20 15:00N 26°35' W 117°12'0 0.3 22.1
2014-Jul-20 14:00N 26°35' W 117°12'0 0.5 22.1
2014-Jul-20 13:00N 26°35' W 117°12'0 0.1 22.1
2014-Jul-20 12:00N 26°35' W 117°12'2 0.2 22.1
2014-Jul-20 04:00N 26°37' W 117°13'1 1.3 22.3
2014-Jul-20 03:00N 26°38' W 117°14'1 0.3 22.3
2014-Jul-19 23:00N 26°37' W 117°16'1 1.0 22.5
2014-Jul-19 22:00N 26°38' W 117°16'1 0.4 22.5
2014-Jul-19 20:00N 26°38' W 117°17'0 0.0 22.4
2014-Jul-19 19:00N 26°38' W 117°17'0 0.1 22.2
2014-Jul-19 18:00N 26°38' W 117°17'2 0.3 22.1
2014-Jul-19 13:00N 26°38' W 117°19'0 0.1 22.0
2014-Jul-19 11:00N 26°38' W 117°19'1 0.2 22.0
2014-Jul-19 06:00N 26°38' W 117°19'0 0.3 22.1
2014-Jul-19 05:00N 26°39' W 117°19'0 0.3 22.1
2014-Jul-19 04:00N 26°39' W 117°18'1 0.5 22.1
2014-Jul-19 02:00N 26°40' W 117°19'2 1.7 22.1
2014-Jul-19 01:00N 26°41' W 117°21'0 0.0 22.2
2014-Jul-19 00:00N 26°41' W 117°21'1 0.6 22.2
2014-Jul-18 23:00N 26°41' W 117°21'1 0.4 22.2
2014-Jul-18 21:00N 26°41' W 117°22'1 0.5 22.1
2014-Jul-18 18:00N 26°42' W 117°23'1 0.3 21.9
2014-Jul-18 16:00N 26°42' W 117°24'1 0.4 21.9
2014-Jul-18 13:00N 26°41' W 117°24'0 0.5 21.9
2014-Jul-18 12:00N 26°41' W 117°25'0 0.2 21.9
2014-Jul-18 11:00N 26°41' W 117°25'1 0.3 21.9
2014-Jul-18 09:00N 26°41' W 117°24'0 0.0 21.9
2014-Jul-18 08:00N 26°41' W 117°24'1 0.7 21.9
2014-Jul-18 06:00N 26°42' W 117°23'3 0.6 21.9
2014-Jul-18 01:00N 26°45' W 117°24'2 0.7 22.0
2014-Jul-17 22:00N 26°46' W 117°26'1 0.8 22.0
2014-Jul-17 21:00N 26°46' W 117°27'2 0.6 22.1
2014-Jul-17 18:00N 26°46' W 117°28'1 0.9 21.9
2014-Jul-17 17:00N 26°46' W 117°29'0 0.1 21.9
2014-Jul-17 13:00N 26°46' W 117°30'0 0.0 21.9
2014-Jul-17 10:00N 26°46' W 117°30'2 0.3 21.9
2014-Jul-17 04:00N 26°48' W 117°29'1 0.7 22.0
2014-Jul-17 03:00N 26°49' W 117°29'2 0.8 22.0
2014-Jul-17 01:00N 26°50' W 117°30'0 0.0 22.1
2014-Jul-17 00:00N 26°50' W 117°30'1 0.7 22.2
2014-Jul-16 22:00N 26°50' W 117°31'0 0.1 22.1
2014-Jul-16 21:00N 26°50' W 117°31'1 0.6 22.1
2014-Jul-16 19:00N 26°51' W 117°32'1 0.4 22.1
2014-Jul-16 16:00N 26°52' W 117°33'1 0.5 21.9
2014-Jul-16 14:00N 26°52' W 117°35'0 0.2 21.9
2014-Jul-16 13:00N 26°52' W 117°34'1 0.5 21.9
2014-Jul-16 12:00N 26°52' W 117°35'0 0.1 21.9
2014-Jul-16 11:00N 26°52' W 117°35'0 0.4 22.0
2014-Jul-16 10:00N 26°52' W 117°35'1 0.2 22.0
2014-Jul-16 06:00N 26°53' W 117°35'1 0.3 22.2
2014-Jul-16 03:00N 26°53' W 117°36'0 0.0 22.4
2014-Jul-16 02:00N 26°53' W 117°36'1 0.4 22.5
2014-Jul-15 23:00N 26°55' W 117°37'0 0.2 22.9
2014-Jul-15 22:00N 26°55' W 117°36'1 0.2 23.1
2014-Jul-15 19:00N 26°55' W 117°37'1 1.0 22.5
2014-Jul-15 18:00N 26°56' W 117°38'0 0.2 22.2
2014-Jul-15 17:00N 26°56' W 117°38'1 0.5 21.9
2014-Jul-15 16:00N 26°56' W 117°38'2 0.5 21.7
2014-Jul-15 13:00N 26°57' W 117°39'1 0.7 21.7
2014-Jul-15 12:00N 26°58' W 117°40'0 0.1 21.7
2014-Jul-15 11:00N 26°58' W 117°40'0 0.4 21.7
2014-Jul-15 10:00N 26°58' W 117°40'1 0.8 21.7
2014-Jul-15 09:00N 26°58' W 117°41'0 0.0 21.7
2014-Jul-15 08:00N 26°58' W 117°41'2 1.7 21.7
2014-Jul-15 07:00N 26°57' W 117°42'0 0.1 21.8
2014-Jul-15 04:00N 26°57' W 117°42'0 0.2 21.8
2014-Jul-15 03:00N 26°57' W 117°42'1 0.3 21.8
2014-Jul-15 00:00N 26°58' W 117°42'0 0.1 22.0
2014-Jul-14 23:00N 26°58' W 117°41'1 0.8 22.1
2014-Jul-14 22:00N 26°59' W 117°41'0 0.3 22.0
2014-Jul-14 21:00N 26°59' W 117°41'1 0.6 21.9
2014-Jul-14 19:00N 27°00' W 117°41'0 0.4 21.7
2014-Jul-14 18:00N 27°00' W 117°42'0 0.2 21.6
2014-Jul-14 16:00N 27°00' W 117°42'0 0.4 21.6
2014-Jul-14 15:00N 27°01' W 117°42'1 0.4 21.5
2014-Jul-14 13:00N 27°02' W 117°43'1 0.6 21.5
2014-Jul-14 12:00N 27°02' W 117°43'1 0.6 21.5
2014-Jul-14 11:00N 27°02' W 117°44'0 0.4 21.5
2014-Jul-14 10:00N 27°03' W 117°44'   21.5
Track history (hours):
 
Tides and Currents Weather Stations Pressure Air Temp Water Temp Dewpoint Dewpoint Depression Visibility Wind Speed Wind Dir Waves Ship Positions

Drifting buoy 46930

Last reported at 2014-Jul-24 10:00 UTC. Time now 2014-Jul-24 12:19 UTC.
Position N 26°18' W 116°58'.

Water temperature 22.2 ° C

Date/timePositionNaut miles runAvg speedWind from/ knotsBaromVisibWave heightAir tempDewpointWater temp
2014-Jul-24 10:00N 26°18' W 116°58'1 1.3 22.2
2014-Jul-24 09:00N 26°19' W 116°58'0 0.0 22.2
2014-Jul-24 08:00N 26°19' W 116°58'1 1.4 22.2
2014-Jul-24 07:00N 26°20' W 116°60'0 0.2 22.2
2014-Jul-24 05:00N 26°20' W 117°00'0 0.3 22.3
2014-Jul-24 04:00N 26°20' W 117°00'0 0.2 22.3
2014-Jul-24 03:00N 26°20' W 117°00'0 0.2 22.3
2014-Jul-24 02:00N 26°20' W 117°00'1 0.4 22.3
2014-Jul-24 00:00N 26°20' W 116°59'0 0.3 22.3
2014-Jul-23 23:00N 26°20' W 116°60'0 0.4 22.3
2014-Jul-23 22:00N 26°21' W 116°59'1 0.8 22.3
2014-Jul-23 21:00N 26°20' W 117°00'2 0.4 22.3
2014-Jul-23 16:00N 26°22' W 116°59'1 0.4 22.2
2014-Jul-23 13:00N 26°24' W 116°59'1 0.8 22.1
2014-Jul-23 12:00N 26°24' W 116°59'1 0.3 22.2
2014-Jul-23 08:00N 26°25' W 116°60'1 1.1 22.2
2014-Jul-23 07:00N 26°26' W 117°01'0 0.0 22.2
2014-Jul-23 06:00N 26°26' W 117°01'1 0.6 22.2
2014-Jul-23 05:00N 26°26' W 117°01'0 0.3 22.2
2014-Jul-23 04:00N 26°26' W 117°01'1 0.2 22.2
2014-Jul-23 00:00N 26°27' W 117°01'0 0.1 22.3
2014-Jul-22 22:00N 26°27' W 117°01'1 0.5 22.3
2014-Jul-22 21:00N 26°27' W 117°02'0 0.2 22.3
2014-Jul-22 20:00N 26°28' W 117°02'0 0.1 22.2
2014-Jul-22 18:00N 26°28' W 117°02'0 0.2 22.2
2014-Jul-22 17:00N 26°28' W 117°02'0 0.0 22.2
2014-Jul-22 16:00N 26°28' W 117°02'1 0.4 22.2
2014-Jul-22 13:00N 26°29' W 117°02'0 0.2 22.2
2014-Jul-22 11:00N 26°29' W 117°02'0 0.3 22.2
2014-Jul-22 10:00N 26°29' W 117°02'1 0.3 22.2
2014-Jul-22 05:00N 26°30' W 117°03'1 0.7 22.2
2014-Jul-22 04:00N 26°31' W 117°03'0 0.0 22.2
2014-Jul-22 03:00N 26°31' W 117°03'0 0.0 22.2
2014-Jul-22 02:00N 26°31' W 117°03'1 0.4 22.3
2014-Jul-21 23:00N 26°31' W 117°04'1 0.6 22.3
2014-Jul-21 22:00N 26°32' W 117°05'0 0.0 22.3
2014-Jul-21 20:00N 26°32' W 117°05'0 0.1 22.3
2014-Jul-21 18:00N 26°32' W 117°05'0 0.5 22.3
2014-Jul-21 17:00N 26°32' W 117°05'0 0.3 22.2
2014-Jul-21 16:00N 26°32' W 117°05'0 0.2 22.2
2014-Jul-21 15:00N 26°32' W 117°06'1 0.2 22.2
2014-Jul-21 12:00N 26°32' W 117°06'1 0.6 22.2
2014-Jul-21 11:00N 26°33' W 117°06'0 0.0 22.2
2014-Jul-21 10:00N 26°33' W 117°06'0 0.0 22.2
2014-Jul-21 09:00N 26°33' W 117°06'2 0.3 22.3
2014-Jul-21 04:00N 26°34' W 117°07'1 0.4 22.4
2014-Jul-21 01:00N 26°35' W 117°09'0 0.4 22.5
2014-Jul-21 00:00N 26°35' W 117°09'1 0.5 22.5
2014-Jul-20 23:00N 26°35' W 117°10'1 0.9 22.6
2014-Jul-20 22:00N 26°35' W 117°11'0 0.1 22.6
2014-Jul-20 20:00N 26°35' W 117°11'1 0.5 22.4
2014-Jul-20 18:00N 26°35' W 117°12'0 0.3 22.2
2014-Jul-20 17:00N 26°35' W 117°12'0 0.2 22.2
2014-Jul-20 16:00N 26°35' W 117°12'0 0.0 22.1
2014-Jul-20 15:00N 26°35' W 117°12'0 0.3 22.1
2014-Jul-20 14:00N 26°35' W 117°12'0 0.5 22.1
2014-Jul-20 13:00N 26°35' W 117°12'0 0.1 22.1
2014-Jul-20 12:00N 26°35' W 117°12'2 0.2 22.1
2014-Jul-20 04:00N 26°37' W 117°13'1 1.3 22.3
2014-Jul-20 03:00N 26°38' W 117°14'1 0.3 22.3
2014-Jul-19 23:00N 26°37' W 117°16'1 1.0 22.5
2014-Jul-19 22:00N 26°38' W 117°16'1 0.4 22.5
2014-Jul-19 20:00N 26°38' W 117°17'0 0.0 22.4
2014-Jul-19 19:00N 26°38' W 117°17'0 0.1 22.2
2014-Jul-19 18:00N 26°38' W 117°17'2 0.3 22.1
2014-Jul-19 13:00N 26°38' W 117°19'0 0.1 22.0
2014-Jul-19 11:00N 26°38' W 117°19'1 0.2 22.0
2014-Jul-19 06:00N 26°38' W 117°19'0 0.3 22.1
2014-Jul-19 05:00N 26°39' W 117°19'0 0.3 22.1
2014-Jul-19 04:00N 26°39' W 117°18'1 0.5 22.1
2014-Jul-19 02:00N 26°40' W 117°19'2 1.7 22.1
2014-Jul-19 01:00N 26°41' W 117°21'0 0.0 22.2
2014-Jul-19 00:00N 26°41' W 117°21'1 0.6 22.2
2014-Jul-18 23:00N 26°41' W 117°21'1 0.4 22.2
2014-Jul-18 21:00N 26°41' W 117°22'1 0.5 22.1
2014-Jul-18 18:00N 26°42' W 117°23'1 0.3 21.9
2014-Jul-18 16:00N 26°42' W 117°24'1 0.4 21.9
2014-Jul-18 13:00N 26°41' W 117°24'0 0.5 21.9
2014-Jul-18 12:00N 26°41' W 117°25'0 0.2 21.9
2014-Jul-18 11:00N 26°41' W 117°25'1 0.3 21.9
2014-Jul-18 09:00N 26°41' W 117°24'0 0.0 21.9
2014-Jul-18 08:00N 26°41' W 117°24'1 0.7 21.9
2014-Jul-18 06:00N 26°42' W 117°23'3 0.6 21.9
2014-Jul-18 01:00N 26°45' W 117°24'2 0.7 22.0
2014-Jul-17 22:00N 26°46' W 117°26'1 0.8 22.0
2014-Jul-17 21:00N 26°46' W 117°27'2 0.6 22.1
2014-Jul-17 18:00N 26°46' W 117°28'1 0.9 21.9
2014-Jul-17 17:00N 26°46' W 117°29'0 0.1 21.9
2014-Jul-17 13:00N 26°46' W 117°30'0 0.0 21.9
2014-Jul-17 10:00N 26°46' W 117°30'2 0.3 21.9
2014-Jul-17 04:00N 26°48' W 117°29'1 0.7 22.0
2014-Jul-17 03:00N 26°49' W 117°29'2 0.8 22.0
2014-Jul-17 01:00N 26°50' W 117°30'0 0.0 22.1
2014-Jul-17 00:00N 26°50' W 117°30'1 0.7 22.2
2014-Jul-16 22:00N 26°50' W 117°31'0 0.1 22.1
2014-Jul-16 21:00N 26°50' W 117°31'1 0.6 22.1
2014-Jul-16 19:00N 26°51' W 117°32'1 0.4 22.1
2014-Jul-16 16:00N 26°52' W 117°33'1 0.5 21.9
2014-Jul-16 14:00N 26°52' W 117°35'0 0.2 21.9
2014-Jul-16 13:00N 26°52' W 117°34'1 0.5 21.9
2014-Jul-16 12:00N 26°52' W 117°35'0 0.1 21.9
2014-Jul-16 11:00N 26°52' W 117°35'0 0.4 22.0
2014-Jul-16 10:00N 26°52' W 117°35'1 0.2 22.0
2014-Jul-16 06:00N 26°53' W 117°35'1 0.3 22.2
2014-Jul-16 03:00N 26°53' W 117°36'0 0.0 22.4
2014-Jul-16 02:00N 26°53' W 117°36'1 0.4 22.5
2014-Jul-15 23:00N 26°55' W 117°37'0 0.2 22.9
2014-Jul-15 22:00N 26°55' W 117°36'1 0.2 23.1
2014-Jul-15 19:00N 26°55' W 117°37'1 1.0 22.5
2014-Jul-15 18:00N 26°56' W 117°38'0 0.2 22.2
2014-Jul-15 17:00N 26°56' W 117°38'1 0.5 21.9
2014-Jul-15 16:00N 26°56' W 117°38'2 0.5 21.7
2014-Jul-15 13:00N 26°57' W 117°39'1 0.7 21.7
2014-Jul-15 12:00N 26°58' W 117°40'0 0.1 21.7
2014-Jul-15 11:00N 26°58' W 117°40'0 0.4 21.7
2014-Jul-15 10:00N 26°58' W 117°40'1 0.8 21.7
2014-Jul-15 09:00N 26°58' W 117°41'0 0.0 21.7
2014-Jul-15 08:00N 26°58' W 117°41'2 1.7 21.7
2014-Jul-15 07:00N 26°57' W 117°42'0 0.1 21.8
2014-Jul-15 04:00N 26°57' W 117°42'0 0.2 21.8
2014-Jul-15 03:00N 26°57' W 117°42'1 0.3 21.8
2014-Jul-15 00:00N 26°58' W 117°42'0 0.1 22.0
2014-Jul-14 23:00N 26°58' W 117°41'1 0.8 22.1
2014-Jul-14 22:00N 26°59' W 117°41'0 0.3 22.0
2014-Jul-14 21:00N 26°59' W 117°41'1 0.6 21.9
2014-Jul-14 19:00N 27°00' W 117°41'0 0.4 21.7
2014-Jul-14 18:00N 27°00' W 117°42'0 0.2 21.6
2014-Jul-14 16:00N 27°00' W 117°42'0 0.4 21.6
2014-Jul-14 15:00N 27°01' W 117°42'1 0.4 21.5
2014-Jul-14 13:00N 27°02' W 117°43'1 0.6 21.5
2014-Jul-14 12:00N 27°02' W 117°43'1 0.6 21.5
2014-Jul-14 11:00N 27°02' W 117°44'0 0.4 21.5
2014-Jul-14 10:00N 27°03' W 117°44'   21.5

Dump ship's entire track history